Wheeling Ohio County Airport Wheeling US
ICAO: KHLG
IATA: HLG
Category: Medium
Scheduled Services: No

Elevation: 1195 ft
TransAlt. 18000 ft.

Airport Communications:
PITTSBURG APP/DEP:118.65
ASOS:127.375
CTAF:118.1
GND:121.75
ELKINS RDO:118.65
TWR:118.1
UNICOM:122.95

KHLG Zoom In..

Runways:

(A) RW 03 length 5002 ft width 150 ft
ILS 109.70 / hdg 33

(B) RW 16 length 4499 ft width 150 ft
---- / hdg 158

(C) RW 21 length 5002 ft width 150 ft
---- / hdg 213

(D) RW 34 length 4499 ft width 150 ft
---- / hdg 338

Location; KHLG
Day. 22 / Time. 21.53 Zulu
* Altimeter: 30.03
* Temperature: 07° c. 44.6°f.
* Wind from: 260° Speed 16 kn with Gusts up to 25 kn.
Dewpoint: -06° c.
Visibility: 10 Statute Miles.
Clouds: Broken 6500 ft.
Clouds: Overcast 8000 ft.

KHLG 222153Z 26016G25KT 10SM BKN065 OVC080 07/M06 A3003 RMK AO2 SLP179 T00721061

Going to: --> -->


Wind From 260°
Speed 16 kn.

 
 
jpsmedia worldairports.se 2021   terms of use